createdAt,value
2022-09-21T00:00:17.376Z,82.69
2022-09-21T00:03:10.854Z,82.72
2022-09-21T00:05:42.926Z,82.76
2022-09-21T00:08:16.097Z,82.75
2022-09-21T00:10:52.354Z,82.72
2022-09-21T00:13:26.469Z,82.67
2022-09-21T00:15:59.182Z,82.68
2022-09-21T00:18:31.298Z,82.69
2022-09-21T00:21:03.826Z,82.82
2022-09-21T00:23:37.677Z,82.83
2022-09-21T00:26:15.950Z,82.85
2022-09-21T00:28:49.523Z,82.85
2022-09-21T00:31:21.672Z,82.84
2022-09-21T00:33:54.759Z,82.92
2022-09-21T00:36:27.972Z,83.03
2022-09-21T00:39:02.100Z,82.91
2022-09-21T00:41:35.611Z,83.00
2022-09-21T00:44:36.870Z,83.07
2022-09-21T00:47:13.177Z,83.11
2022-09-21T00:49:49.630Z,83.15
2022-09-21T00:52:26.327Z,83.23
2022-09-21T00:55:03.377Z,83.31
2022-09-21T00:57:35.643Z,83.44
2022-09-21T01:00:11.700Z,83.52
2022-09-21T01:02:44.568Z,83.48
2022-09-21T01:05:16.775Z,83.54
2022-09-21T01:07:51.104Z,83.48
2022-09-21T01:10:23.663Z,83.44
2022-09-21T01:13:12.470Z,83.49
2022-09-21T01:15:53.034Z,83.58
2022-09-21T01:18:36.395Z,83.52
2022-09-21T01:21:23.454Z,83.58
2022-09-21T01:24:19.697Z,83.69
2022-09-21T01:27:27.996Z,83.62
2022-09-21T01:30:03.793Z,83.73
2022-09-21T01:32:39.950Z,83.72
2022-09-21T01:35:16.147Z,83.81
2022-09-21T01:37:53.613Z,83.79
2022-09-21T01:40:34.562Z,83.85
2022-09-21T01:43:10.780Z,83.81
2022-09-21T01:45:47.249Z,83.77
2022-09-21T01:48:22.506Z,83.87
2022-09-21T01:50:58.267Z,83.79
2022-09-21T01:53:37.229Z,83.78
2022-09-21T01:56:14.910Z,83.78
2022-09-21T01:58:51.480Z,83.87
2022-09-21T02:01:27.228Z,83.76
2022-09-21T02:04:02.793Z,83.82
2022-09-21T02:06:35.084Z,83.80
2022-09-21T02:09:07.316Z,83.99
2022-09-21T02:11:42.570Z,83.95
2022-09-21T02:14:18.356Z,83.92
2022-09-21T02:17:02.314Z,83.90
2022-09-21T02:19:42.094Z,83.99
2022-09-21T02:22:18.739Z,84.08
2022-09-21T02:24:55.359Z,83.97
2022-09-21T02:27:36.418Z,83.97
2022-09-21T02:30:11.299Z,83.99
2022-09-21T02:32:51.531Z,84.07
2022-09-21T02:35:33.303Z,84.08
2022-09-21T02:38:16.935Z,84.10
2022-09-21T02:40:57.931Z,84.11
2022-09-21T02:43:36.239Z,83.88
2022-09-21T02:46:14.137Z,83.95
2022-09-21T02:48:50.059Z,83.92
2022-09-21T02:51:27.053Z,83.81
2022-09-21T02:54:00.455Z,84.03
2022-09-21T02:56:34.590Z,84.06
2022-09-21T02:59:08.581Z,83.88
2022-09-21T03:01:42.827Z,83.93
2022-09-21T03:04:14.904Z,83.98
2022-09-21T03:06:47.210Z,84.00
2022-09-21T03:09:19.445Z,83.92
2022-09-21T03:11:51.559Z,84.13
2022-09-21T03:14:23.531Z,83.95
2022-09-21T03:16:55.777Z,84.09
2022-09-21T03:19:28.574Z,84.08
2022-09-21T03:22:00.798Z,84.17
2022-09-21T03:24:48.208Z,84.17
2022-09-21T03:27:23.088Z,84.29
2022-09-21T03:29:57.715Z,84.41
2022-09-21T03:32:30.597Z,84.43
2022-09-21T03:35:02.664Z,84.48
2022-09-21T03:37:38.132Z,84.46
2022-09-21T03:40:13.882Z,84.48
2022-09-21T03:42:46.940Z,84.61
2022-09-21T03:45:19.502Z,84.67
2022-09-21T03:47:51.758Z,84.77
2022-09-21T03:50:23.983Z,84.74
2022-09-21T03:52:56.013Z,84.77
2022-09-21T03:55:29.894Z,84.63
2022-09-21T03:58:02.418Z,84.73
2022-09-21T04:00:34.836Z,84.77
2022-09-21T04:03:06.999Z,84.69
2022-09-21T04:05:39.754Z,84.70
2022-09-21T04:08:12.150Z,84.65
2022-09-21T04:10:44.323Z,84.77
2022-09-21T04:13:16.346Z,84.84
2022-09-21T04:15:48.387Z,84.84
2022-09-21T04:18:20.436Z,84.82
2022-09-21T04:20:52.864Z,84.87
2022-09-21T04:23:24.858Z,84.96
2022-09-21T04:25:58.101Z,84.93
2022-09-21T04:28:30.107Z,85.10
2022-09-21T04:31:02.414Z,85.03
2022-09-21T04:33:34.844Z,85.07
2022-09-21T04:36:07.676Z,85.06
2022-09-21T04:38:40.691Z,85.15
2022-09-21T04:41:13.254Z,85.04
2022-09-21T04:43:46.793Z,85.16
2022-09-21T04:46:20.782Z,85.13
2022-09-21T04:48:53.246Z,85.05
2022-09-21T04:51:25.344Z,84.98
2022-09-21T04:53:57.378Z,85.05
2022-09-21T04:56:29.453Z,85.08
2022-09-21T04:59:01.686Z,85.14
2022-09-21T05:01:34.682Z,85.17
2022-09-21T05:04:06.895Z,85.11
2022-09-21T05:06:39.619Z,85.11
2022-09-21T05:09:29.762Z,85.00
2022-09-21T05:12:03.097Z,84.87
2022-09-21T05:14:35.654Z,84.92
2022-09-21T05:17:07.963Z,85.02
2022-09-21T05:19:40.110Z,85.03
2022-09-21T05:22:12.178Z,85.04
2022-09-21T05:24:44.193Z,84.95
2022-09-21T05:27:16.374Z,84.76
2022-09-21T05:29:50.112Z,84.90
2022-09-21T05:32:29.138Z,84.81
2022-09-21T05:35:14.216Z,84.78
2022-09-21T05:37:53.531Z,84.72
2022-09-21T05:40:26.823Z,84.75
2022-09-21T05:42:59.948Z,84.61
2022-09-21T05:45:33.455Z,84.67
2022-09-21T05:48:14.359Z,84.57
2022-09-21T05:50:56.109Z,84.49
2022-09-21T05:54:00.323Z,84.44
2022-09-21T05:56:44.142Z,84.42
2022-09-21T05:59:41.570Z,84.51
2022-09-21T06:02:24.329Z,84.35
2022-09-21T06:04:57.783Z,84.04
2022-09-21T06:07:29.948Z,83.86
2022-09-21T06:10:01.919Z,83.81
2022-09-21T06:12:34.437Z,83.83
2022-09-21T06:15:07.730Z,83.73
2022-09-21T06:17:39.781Z,83.61
2022-09-21T06:20:13.385Z,83.33
2022-09-21T06:22:46.083Z,83.29
2022-09-21T06:25:20.219Z,83.20
2022-09-21T06:27:52.401Z,83.35
2022-09-21T06:30:24.555Z,83.26
2022-09-21T06:32:59.702Z,83.12
2022-09-21T06:35:32.801Z,82.99
2022-09-21T06:38:06.700Z,82.66
2022-09-21T06:40:39.434Z,82.29
2022-09-21T06:43:11.632Z,81.94
2022-09-21T06:45:43.785Z,81.61
2022-09-21T06:48:15.874Z,81.79
2022-09-21T06:50:47.879Z,81.06
2022-09-21T06:53:20.812Z,80.63
2022-09-21T06:55:53.510Z,80.34
2022-09-21T06:58:25.558Z,80.12
2022-09-21T07:00:57.942Z,79.17
2022-09-21T07:03:31.394Z,78.31
2022-09-21T07:06:03.520Z,77.71
2022-09-21T07:11:28.398Z,77.32
2022-09-21T07:14:00.692Z,77.17
2022-09-21T07:16:33.480Z,76.57
2022-09-21T07:19:13.274Z,76.11
2022-09-21T07:21:45.474Z,76.22
2022-09-21T07:24:17.482Z,75.77
2022-09-21T07:26:49.601Z,75.32
2022-09-21T07:29:21.614Z,74.76
2022-09-21T07:31:53.696Z,75.50
2022-09-21T07:34:26.495Z,74.40
2022-09-21T07:36:58.507Z,71.97
2022-09-21T07:39:30.650Z,69.63
2022-09-21T07:42:02.835Z,68.47
2022-09-21T07:44:35.424Z,67.77
2022-09-21T07:47:08.463Z,66.97
2022-09-21T07:49:40.825Z,64.91
2022-09-21T07:52:12.891Z,63.09
2022-09-21T07:54:45.176Z,60.86
2022-09-21T07:57:35.171Z,59.24
2022-09-21T08:00:10.191Z,58.06
2022-09-21T08:02:47.652Z,57.90
2022-09-21T08:05:20.126Z,57.86
2022-09-21T08:07:53.077Z,58.04
2022-09-21T08:10:26.380Z,58.07
2022-09-21T08:12:58.965Z,58.69
2022-09-21T08:15:48.724Z,58.68
2022-09-21T08:18:23.111Z,59.15
2022-09-21T08:20:58.382Z,59.61
2022-09-21T08:23:31.751Z,58.60
2022-09-21T08:26:06.898Z,57.82
2022-09-21T08:28:40.492Z,57.60
2022-09-21T08:31:13.003Z,57.16
2022-09-21T08:33:45.455Z,57.48
2022-09-21T08:36:18.060Z,57.85
2022-09-21T08:38:50.962Z,58.61
2022-09-21T08:41:26.918Z,59.05
2022-09-21T08:44:05.395Z,59.52
2022-09-21T08:46:40.429Z,59.95
2022-09-21T08:49:17.664Z,60.21
2022-09-21T08:51:53.357Z,60.47
2022-09-21T08:54:30.319Z,60.79
2022-09-21T08:57:05.497Z,61.28
2022-09-21T08:59:45.702Z,61.57
2022-09-21T09:02:34.311Z,61.62
2022-09-21T09:05:20.229Z,61.40
2022-09-21T09:08:08.242Z,61.50
2022-09-21T09:10:45.451Z,61.96
2022-09-21T09:13:35.106Z,62.06
2022-09-21T09:16:19.521Z,62.58
2022-09-21T09:18:55.947Z,62.94
2022-09-21T09:21:35.409Z,62.70
2022-09-21T09:24:16.322Z,62.11
2022-09-21T09:26:53.894Z,62.15
2022-09-21T09:29:32.691Z,62.19
2022-09-21T09:32:06.525Z,62.26
2022-09-21T09:34:45.040Z,62.03
2022-09-21T09:37:19.238Z,62.36
2022-09-21T09:39:57.250Z,62.25
2022-09-21T09:42:43.044Z,62.13
2022-09-21T09:45:52.168Z,62.02
2022-09-21T09:48:54.185Z,61.49
2022-09-21T09:51:26.971Z,61.61
2022-09-21T09:54:05.872Z,61.57
2022-09-21T09:56:41.801Z,61.63
2022-09-21T09:59:24.900Z,61.72
2022-09-21T10:02:05.850Z,61.88
2022-09-21T10:04:38.043Z,61.50
2022-09-21T10:07:20.964Z,61.74
2022-09-21T10:09:52.984Z,61.32
2022-09-21T10:12:28.106Z,61.55
2022-09-21T10:15:01.580Z,61.64
2022-09-21T10:17:34.127Z,61.06
2022-09-21T10:20:17.225Z,59.30
2022-09-21T10:22:56.335Z,58.61
2022-09-21T10:25:28.411Z,57.65
2022-09-21T10:28:02.758Z,57.32
2022-09-21T10:30:39.753Z,56.21
2022-09-21T10:33:22.520Z,55.14
2022-09-21T10:35:57.063Z,53.52
2022-09-21T10:38:30.829Z,51.60
2022-09-21T10:41:02.893Z,51.04
2022-09-21T10:43:43.599Z,50.87
2022-09-21T10:46:17.253Z,50.99
2022-09-21T10:48:49.584Z,51.50
2022-09-21T10:51:31.877Z,51.83
2022-09-21T10:54:09.403Z,51.59
2022-09-21T10:56:54.109Z,51.93
2022-09-21T10:59:30.341Z,52.24
2022-09-21T11:02:04.007Z,51.51
2022-09-21T11:04:47.582Z,50.62
2022-09-21T11:07:24.806Z,49.74
2022-09-21T11:10:04.907Z,49.66
2022-09-21T11:12:50.486Z,49.89
2022-09-21T11:15:35.042Z,49.32
2022-09-21T11:18:17.590Z,48.83
2022-09-21T11:20:54.661Z,48.38
2022-09-21T11:23:45.480Z,48.46
2022-09-21T11:26:25.328Z,48.34
2022-09-21T11:29:03.533Z,48.47
2022-09-21T11:32:05.916Z,48.81
2022-09-21T11:35:09.524Z,48.63
2022-09-21T11:37:59.328Z,49.46
2022-09-21T11:40:43.789Z,49.48
2022-09-21T11:43:31.973Z,49.51
2022-09-21T11:46:17.073Z,49.44
2022-09-21T11:49:01.791Z,50.09
2022-09-21T11:51:57.283Z,50.53
2022-09-21T11:54:52.007Z,50.57
2022-09-21T11:57:28.912Z,50.86
2022-09-21T12:00:16.196Z,50.79
2022-09-21T12:03:28.851Z,50.78
2022-09-21T12:06:13.495Z,50.08
2022-09-21T12:09:15.810Z,49.93
2022-09-21T12:11:59.880Z,48.60
2022-09-21T12:14:41.807Z,48.64
2022-09-21T12:17:17.808Z,49.19
2022-09-21T12:19:57.455Z,48.54
2022-09-21T12:22:33.951Z,48.32
2022-09-21T12:25:13.953Z,48.35
2022-09-21T12:27:51.845Z,47.55
2022-09-21T12:30:25.714Z,47.18
2022-09-21T12:33:05.843Z,47.10
2022-09-21T12:35:42.226Z,46.93
2022-09-21T12:38:19.096Z,47.51
2022-09-21T12:40:55.689Z,47.34
2022-09-21T12:43:36.253Z,47.38
2022-09-21T12:46:14.201Z,47.16
2022-09-21T12:48:46.351Z,46.56
2022-09-21T12:51:24.782Z,45.94
2022-09-21T12:54:00.351Z,45.96
2022-09-21T12:56:44.643Z,46.28
2022-09-21T12:59:32.309Z,46.55
2022-09-21T13:02:14.589Z,46.19
2022-09-21T13:05:06.250Z,46.85
2022-09-21T13:08:03.407Z,48.07
2022-09-21T13:10:43.134Z,49.23
2022-09-21T13:13:26.399Z,49.79
2022-09-21T13:16:00.222Z,50.77
2022-09-21T13:18:36.662Z,51.72
2022-09-21T13:21:22.144Z,52.35
2022-09-21T13:24:00.867Z,52.90
2022-09-21T13:26:37.641Z,53.40
2022-09-21T13:29:31.085Z,54.10
2022-09-21T13:32:05.199Z,54.48
2022-09-21T13:34:39.171Z,54.53
2022-09-21T13:37:28.899Z,54.69
2022-09-21T13:40:41.567Z,54.95
2022-09-21T13:43:46.607Z,55.30
2022-09-21T13:46:50.276Z,55.41
2022-09-21T13:49:27.146Z,55.45
2022-09-21T13:52:02.917Z,55.46
2022-09-21T13:54:39.749Z,55.71
2022-09-21T13:57:21.263Z,55.89
2022-09-21T14:00:36.220Z,56.09
2022-09-21T14:03:22.605Z,56.67
2022-09-21T14:05:57.555Z,57.02
2022-09-21T14:08:35.690Z,57.28
2022-09-21T14:11:12.806Z,57.50
2022-09-21T14:13:47.133Z,57.34
2022-09-21T14:17:04.146Z,57.21
2022-09-21T14:20:08.135Z,57.65
2022-09-21T14:22:43.775Z,57.83
2022-09-21T14:25:32.446Z,57.45
2022-09-21T14:28:13.258Z,57.39
2022-09-21T14:30:54.741Z,57.20
2022-09-21T14:33:33.803Z,56.47
2022-09-21T14:36:11.248Z,56.14
2022-09-21T14:38:55.838Z,56.07
2022-09-21T14:41:38.291Z,55.99
2022-09-21T14:44:21.031Z,55.91
2022-09-21T14:47:17.793Z,55.91
2022-09-21T14:50:15.614Z,55.56
2022-09-21T14:53:08.200Z,55.57
2022-09-21T14:56:03.984Z,55.26
2022-09-21T14:58:50.186Z,55.70
2022-09-21T15:01:42.358Z,55.55
2022-09-21T15:04:46.044Z,55.65
2022-09-21T15:07:59.238Z,56.10
2022-09-21T15:10:55.432Z,56.13
2022-09-21T15:13:53.605Z,56.16
2022-09-21T15:16:34.857Z,56.28
2022-09-21T15:19:17.455Z,56.35
2022-09-21T15:21:51.329Z,56.61
2022-09-21T15:24:27.012Z,56.64
2022-09-21T15:27:10.606Z,56.85
2022-09-21T15:29:48.966Z,57.27
2022-09-21T15:32:34.289Z,57.55
2022-09-21T15:35:17.059Z,57.96
2022-09-21T15:37:50.116Z,58.35
2022-09-21T15:40:25.918Z,58.61
2022-09-21T15:43:05.826Z,58.93
2022-09-21T15:45:52.035Z,58.98
2022-09-21T15:48:25.039Z,59.05
2022-09-21T15:51:00.586Z,59.33
2022-09-21T15:53:38.749Z,59.56
2022-09-21T15:56:20.944Z,59.83
2022-09-21T15:59:05.195Z,60.13
2022-09-21T16:01:42.826Z,60.64
2022-09-21T16:04:18.956Z,61.19
2022-09-21T16:07:02.976Z,61.82
2022-09-21T16:09:43.751Z,62.52
2022-09-21T16:12:42.215Z,63.34
2022-09-21T16:15:32.246Z,64.11
2022-09-21T16:18:07.090Z,64.68
2022-09-21T16:20:45.804Z,65.04
2022-09-21T16:23:23.405Z,65.66
2022-09-21T16:26:02.218Z,65.76
2022-09-21T16:28:41.317Z,65.98
2022-09-21T16:31:34.251Z,66.29
2022-09-21T16:34:22.948Z,66.18
2022-09-21T16:36:55.604Z,66.07
2022-09-21T16:39:28.169Z,65.95
2022-09-21T16:42:05.565Z,65.91
2022-09-21T16:44:44.952Z,66.05
2022-09-21T16:47:22.847Z,66.28
2022-09-21T16:49:57.196Z,66.62
2022-09-21T16:52:30.766Z,66.48
2022-09-21T16:55:02.978Z,66.77
2022-09-21T16:57:35.075Z,66.90
2022-09-21T17:00:11.532Z,67.12
2022-09-21T17:02:45.463Z,67.15
2022-09-21T17:05:20.730Z,67.37
2022-09-21T17:07:56.886Z,67.46
2022-09-21T17:10:32.743Z,67.60
2022-09-21T17:13:06.940Z,67.84
2022-09-21T17:15:44.808Z,68.08
2022-09-21T17:18:17.186Z,68.22
2022-09-21T17:20:49.534Z,68.43
2022-09-21T17:23:27.645Z,68.58
2022-09-21T17:25:59.799Z,68.64
2022-09-21T17:28:32.336Z,68.90
2022-09-21T17:31:07.457Z,68.96
2022-09-21T17:33:39.608Z,68.99
2022-09-21T17:36:16.118Z,69.27
2022-09-21T17:38:47.019Z,69.46
2022-09-21T17:41:25.781Z,69.58
2022-09-21T17:44:07.178Z,69.73
2022-09-21T17:46:48.205Z,69.76
2022-09-21T17:49:21.007Z,69.97
2022-09-21T17:52:11.452Z,70.15
2022-09-21T17:54:46.158Z,70.06
2022-09-21T17:57:31.054Z,70.29
2022-09-21T18:00:11.416Z,70.41
2022-09-21T18:02:44.038Z,70.55
2022-09-21T18:05:23.460Z,70.75
2022-09-21T18:07:57.013Z,71.00
2022-09-21T18:10:30.266Z,71.01
2022-09-21T18:13:20.745Z,71.09
2022-09-21T18:16:04.338Z,71.27
2022-09-21T18:18:45.661Z,71.40
2022-09-21T18:21:22.087Z,71.38
2022-09-21T18:24:18.935Z,71.48
2022-09-21T18:26:52.672Z,71.69
2022-09-21T18:29:42.173Z,71.83
2022-09-21T18:32:35.016Z,71.66
2022-09-21T18:35:27.585Z,71.80
2022-09-21T18:38:20.916Z,71.87
2022-09-21T18:41:05.434Z,71.94
2022-09-21T18:43:54.128Z,72.03
2022-09-21T18:46:33.627Z,72.10
2022-09-21T18:49:13.756Z,72.31
2022-09-21T18:51:54.045Z,72.40
2022-09-21T18:54:27.744Z,72.52
2022-09-21T18:57:00.569Z,72.66
2022-09-21T18:59:33.987Z,72.64
2022-09-21T19:02:12.455Z,72.76
2022-09-21T19:04:46.271Z,72.91
2022-09-21T19:07:30.559Z,73.02
2022-09-21T19:10:24.946Z,73.13
2022-09-21T19:13:07.352Z,73.28
2022-09-21T19:16:00.531Z,73.38
2022-09-21T19:18:43.552Z,73.54
2022-09-21T19:21:24.255Z,73.63
2022-09-21T19:24:06.321Z,73.81
2022-09-21T19:26:46.732Z,73.91
2022-09-21T19:29:38.377Z,73.99
2022-09-21T19:32:19.546Z,74.03
2022-09-21T19:34:52.891Z,74.13
2022-09-21T19:37:25.611Z,74.19
2022-09-21T19:39:59.856Z,74.30
2022-09-21T19:42:40.910Z,74.36
2022-09-21T19:45:23.278Z,74.42
2022-09-21T19:48:01.978Z,74.62
2022-09-21T19:50:41.029Z,74.74
2022-09-21T19:53:32.668Z,74.84
2022-09-21T19:56:27.729Z,74.92
2022-09-21T19:59:19.695Z,74.90
2022-09-21T20:01:57.826Z,74.95
2022-09-21T20:04:39.316Z,75.06
2022-09-21T20:07:20.357Z,75.10
2022-09-21T20:10:10.105Z,75.06
2022-09-21T20:12:49.190Z,75.25
2022-09-21T20:15:28.843Z,75.22
2022-09-21T20:18:11.631Z,75.25
2022-09-21T20:20:44.544Z,75.25
2022-09-21T20:23:17.326Z,75.37
2022-09-21T20:25:55.129Z,75.44
2022-09-21T20:28:28.423Z,75.46
2022-09-21T20:31:00.687Z,75.50
2022-09-21T20:33:33.541Z,75.57
2022-09-21T20:36:07.053Z,75.49
2022-09-21T20:38:39.503Z,75.47
2022-09-21T20:41:15.678Z,75.61
2022-09-21T20:43:47.753Z,75.73
2022-09-21T20:46:19.923Z,75.76
2022-09-21T20:48:55.347Z,75.78
2022-09-21T20:51:28.553Z,75.75
2022-09-21T20:54:02.046Z,75.87
2022-09-21T20:56:34.439Z,75.87
2022-09-21T20:59:06.546Z,76.02
2022-09-21T21:01:38.834Z,76.16
2022-09-21T21:04:13.213Z,76.06
2022-09-21T21:06:45.466Z,76.14
2022-09-21T21:09:17.849Z,76.25
2022-09-21T21:11:49.959Z,76.27
2022-09-21T21:14:22.080Z,76.39
2022-09-21T21:16:54.293Z,76.37
2022-09-21T21:19:27.418Z,76.58
2022-09-21T21:21:59.494Z,76.68
2022-09-21T21:24:44.237Z,76.68
2022-09-21T21:27:18.237Z,76.74
2022-09-21T21:29:52.067Z,76.85
2022-09-21T21:32:26.294Z,76.92
2022-09-21T21:34:58.348Z,76.90
2022-09-21T21:37:31.735Z,77.14
2022-09-21T21:40:04.589Z,77.29
2022-09-21T21:42:38.188Z,77.43
2022-09-21T21:45:11.694Z,77.51
2022-09-21T21:47:43.719Z,77.44
2022-09-21T21:50:16.739Z,77.67
2022-09-21T21:52:48.814Z,77.65
2022-09-21T21:55:21.125Z,77.62
2022-09-21T21:57:53.179Z,77.78
2022-09-21T22:00:25.301Z,77.87
2022-09-21T22:02:59.583Z,77.84
2022-09-21T22:05:32.112Z,77.84
2022-09-21T22:08:06.520Z,77.83
2022-09-21T22:10:38.536Z,78.01
2022-09-21T22:13:10.674Z,77.98
2022-09-21T22:15:44.122Z,78.10
2022-09-21T22:18:16.232Z,78.22
2022-09-21T22:20:48.820Z,78.24
2022-09-21T22:23:20.812Z,78.35
2022-09-21T22:25:52.839Z,78.46
2022-09-21T22:28:24.941Z,78.43
2022-09-21T22:30:57.622Z,78.59
2022-09-21T22:33:34.578Z,78.48
2022-09-21T22:36:06.381Z,78.70
2022-09-21T22:38:42.916Z,78.67
2022-09-21T22:41:17.215Z,78.74
2022-09-21T22:43:51.770Z,78.85
2022-09-21T22:46:25.405Z,78.92
2022-09-21T22:48:57.654Z,78.92
2022-09-21T22:51:30.803Z,78.83
2022-09-21T22:54:02.864Z,78.80
2022-09-21T22:56:35.762Z,78.87
2022-09-21T22:59:08.540Z,78.98
2022-09-21T23:01:41.973Z,79.06
2022-09-21T23:04:15.673Z,79.07
2022-09-21T23:06:49.774Z,79.09
2022-09-21T23:09:22.939Z,79.07
2022-09-21T23:11:55.001Z,79.13
2022-09-21T23:14:27.293Z,79.08
2022-09-21T23:16:59.357Z,79.01
2022-09-21T23:19:32.341Z,79.14
2022-09-21T23:22:04.584Z,79.15
2022-09-21T23:24:36.599Z,79.19
2022-09-21T23:27:08.795Z,79.01
2022-09-21T23:29:41.015Z,79.18
2022-09-21T23:32:13.114Z,79.27
2022-09-21T23:34:45.516Z,79.30
2022-09-21T23:37:17.565Z,79.35
2022-09-21T23:39:49.661Z,79.38
2022-09-21T23:42:21.741Z,79.48
2022-09-21T23:44:53.824Z,79.51
2022-09-21T23:47:25.954Z,79.71
2022-09-21T23:49:57.974Z,79.64
2022-09-21T23:52:30.289Z,79.64
2022-09-21T23:55:02.519Z,79.73
2022-09-21T23:57:34.644Z,79.74
